createdAt,value
2022-11-05T00:02:27.631Z,10.88
2022-11-05T00:06:48.200Z,10.92
2022-11-05T00:10:51.803Z,10.92
2022-11-05T00:15:12.688Z,10.85
2022-11-05T00:19:18.009Z,10.91
2022-11-05T00:23:38.552Z,10.91
2022-11-05T00:27:42.277Z,10.92
2022-11-05T00:31:45.893Z,10.92
2022-11-05T00:35:50.849Z,10.94
2022-11-05T00:39:53.868Z,10.93
2022-11-05T00:44:14.788Z,10.95
2022-11-05T00:48:35.295Z,10.96
2022-11-05T00:52:59.907Z,10.95
2022-11-05T00:57:04.810Z,10.93
2022-11-05T01:01:08.841Z,10.91
2022-11-05T01:05:12.419Z,10.89
2022-11-05T01:09:17.314Z,10.85
2022-11-05T01:13:22.265Z,10.80
2022-11-05T01:17:25.995Z,10.75
2022-11-05T01:21:29.362Z,10.67
2022-11-05T01:25:34.073Z,10.61
2022-11-05T01:29:37.565Z,10.53
2022-11-05T01:33:41.072Z,10.40
2022-11-05T01:37:44.954Z,10.41
2022-11-05T01:41:49.390Z,10.38
2022-11-05T01:45:55.243Z,10.38
2022-11-05T01:50:02.414Z,10.44
2022-11-05T01:54:09.070Z,10.46
2022-11-05T01:58:19.325Z,10.48
2022-11-05T02:02:22.539Z,10.50
2022-11-05T02:06:29.449Z,10.53
2022-11-05T02:10:34.769Z,10.55
2022-11-05T02:14:39.928Z,10.56
2022-11-05T02:18:53.644Z,10.59
2022-11-05T02:23:35.237Z,10.61
2022-11-05T02:28:05.296Z,10.63
2022-11-05T02:32:19.502Z,10.60
2022-11-05T02:36:36.124Z,10.60
2022-11-05T02:40:49.062Z,10.57
2022-11-05T02:45:02.392Z,10.56
2022-11-05T02:49:13.850Z,10.56
2022-11-05T02:53:22.330Z,10.58
2022-11-05T02:57:25.882Z,10.59
2022-11-05T03:01:29.038Z,10.62
2022-11-05T03:05:42.257Z,10.68
2022-11-05T03:10:07.238Z,10.71
2022-11-05T03:14:22.250Z,10.75
2022-11-05T03:18:35.915Z,10.76
2022-11-05T03:22:44.895Z,10.79
2022-11-05T03:26:56.939Z,10.78
2022-11-05T03:31:01.390Z,10.77
2022-11-05T03:35:10.210Z,10.73
2022-11-05T03:39:19.768Z,10.71
2022-11-05T03:43:26.745Z,10.69
2022-11-05T03:47:34.011Z,10.65
2022-11-05T03:51:45.453Z,10.61
2022-11-05T03:55:55.110Z,10.57
2022-11-05T03:59:59.296Z,10.54
2022-11-05T04:04:02.387Z,10.52
2022-11-05T04:08:38.203Z,10.53
2022-11-05T04:13:00.715Z,10.38
2022-11-05T04:17:23.308Z,10.52
2022-11-05T04:21:44.143Z,10.52
2022-11-05T04:25:47.512Z,10.48
2022-11-05T04:30:09.461Z,10.40
2022-11-05T04:34:12.449Z,10.38
2022-11-05T04:38:17.656Z,10.31
2022-11-05T04:42:20.730Z,10.17
2022-11-05T04:46:25.526Z,10.13
2022-11-05T04:50:28.798Z,10.11
2022-11-05T04:54:32.294Z,10.07
2022-11-05T04:58:35.615Z,10.02
2022-11-05T05:02:40.561Z,9.98
2022-11-05T05:06:43.594Z,9.95
2022-11-05T05:10:47.314Z,9.94
2022-11-05T05:14:50.399Z,9.94
2022-11-05T05:18:55.919Z,9.95
2022-11-05T05:22:58.982Z,9.95
2022-11-05T05:27:02.465Z,9.99
2022-11-05T05:31:05.664Z,10.02
2022-11-05T05:35:11.872Z,10.10
2022-11-05T05:39:14.942Z,10.14
2022-11-05T05:43:18.527Z,10.17
2022-11-05T05:47:21.619Z,10.21
2022-11-05T05:51:26.569Z,10.25
2022-11-05T05:55:31.391Z,10.29
2022-11-05T05:59:34.430Z,10.33
2022-11-05T06:03:38.143Z,10.36
2022-11-05T06:07:42.655Z,10.39
2022-11-05T06:11:46.434Z,10.39
2022-11-05T06:15:49.501Z,10.40
2022-11-05T06:19:53.170Z,10.41
2022-11-05T06:23:57.551Z,10.43
2022-11-05T06:28:01.737Z,10.44
2022-11-05T06:32:06.965Z,10.46
2022-11-05T06:36:15.641Z,10.46
2022-11-05T06:40:21.133Z,10.48
2022-11-05T06:44:24.469Z,10.51
2022-11-05T06:48:27.899Z,10.53
2022-11-05T06:52:31.403Z,10.58
2022-11-05T06:56:36.349Z,10.62
2022-11-05T07:00:40.166Z,10.64
2022-11-05T07:04:43.471Z,10.69
2022-11-05T07:08:47.157Z,10.72
2022-11-05T07:12:51.770Z,10.76
2022-11-05T07:16:55.325Z,10.75
2022-11-05T07:21:00.173Z,10.78
2022-11-05T07:25:03.945Z,10.81
2022-11-05T07:29:08.458Z,10.87
2022-11-05T07:33:12.073Z,10.91
2022-11-05T07:37:17.201Z,10.99
2022-11-05T07:41:20.157Z,11.06
2022-11-05T07:45:25.921Z,11.15
2022-11-05T07:49:28.932Z,11.21
2022-11-05T07:53:32.396Z,11.25
2022-11-05T07:57:41.800Z,11.31
2022-11-05T08:01:47.061Z,11.38
2022-11-05T08:05:50.806Z,11.43
2022-11-05T08:09:54.307Z,11.49
2022-11-05T08:13:57.612Z,11.55
2022-11-05T08:18:03.881Z,11.65
2022-11-05T08:22:06.811Z,11.71
2022-11-05T08:26:10.300Z,11.83
2022-11-05T08:30:14.139Z,11.93
2022-11-05T08:34:19.104Z,12.01
2022-11-05T08:38:22.651Z,12.07
2022-11-05T08:42:26.234Z,12.12
2022-11-05T08:46:29.347Z,12.17
2022-11-05T08:50:35.540Z,12.25
2022-11-05T08:54:39.025Z,12.34
2022-11-05T08:58:42.075Z,12.42
2022-11-05T09:02:46.408Z,12.44
2022-11-05T09:06:51.939Z,12.51
2022-11-05T09:10:55.398Z,12.58
2022-11-05T09:14:58.570Z,12.66
2022-11-05T09:19:04.077Z,12.75
2022-11-05T09:23:09.287Z,12.83
2022-11-05T09:27:15.079Z,12.95
2022-11-05T09:31:18.117Z,13.04
2022-11-05T09:35:21.593Z,13.08
2022-11-05T09:39:26.416Z,13.16
2022-11-05T09:43:35.052Z,13.22
2022-11-05T09:47:43.085Z,13.27
2022-11-05T09:51:46.560Z,13.30
2022-11-05T09:55:55.501Z,13.36
2022-11-05T10:00:01.296Z,13.43
2022-11-05T10:04:10.632Z,13.52
2022-11-05T10:08:19.541Z,13.58
2022-11-05T10:12:27.685Z,13.63
2022-11-05T10:16:34.214Z,13.64
2022-11-05T10:20:39.839Z,13.69
2022-11-05T10:24:46.892Z,13.77
2022-11-05T10:28:53.012Z,13.89
2022-11-05T10:33:01.131Z,14.00
2022-11-05T10:41:54.030Z,14.26
2022-11-05T10:46:20.126Z,14.37
2022-11-05T10:50:34.019Z,14.48
2022-11-05T10:54:44.075Z,14.60
2022-11-05T10:58:59.677Z,14.76
2022-11-05T11:03:46.699Z,14.94
2022-11-05T11:08:26.021Z,15.06
2022-11-05T11:12:41.223Z,15.12
2022-11-05T11:16:57.956Z,15.12
2022-11-05T11:21:13.879Z,15.14
2022-11-05T11:25:28.734Z,15.16
2022-11-05T11:29:49.123Z,15.14
2022-11-05T11:34:01.300Z,15.10
2022-11-05T11:38:11.885Z,15.05
2022-11-05T11:42:23.162Z,14.95
2022-11-05T11:46:26.946Z,14.86
2022-11-05T11:50:40.541Z,14.73
2022-11-05T11:54:44.601Z,14.60
2022-11-05T11:58:51.331Z,14.56
2022-11-05T12:03:21.536Z,14.59
2022-11-05T12:07:37.225Z,14.66
2022-11-05T12:11:46.852Z,14.73
2022-11-05T12:15:54.426Z,14.78
2022-11-05T12:20:18.856Z,14.79
2022-11-05T12:24:39.425Z,14.82
2022-11-05T12:29:18.978Z,14.80
2022-11-05T12:33:39.622Z,14.76
2022-11-05T12:37:53.974Z,14.63
2022-11-05T12:42:03.205Z,14.49
2022-11-05T12:46:18.609Z,14.40
2022-11-05T12:50:33.009Z,14.34
2022-11-05T12:54:51.046Z,14.32
2022-11-05T12:59:01.116Z,14.37
2022-11-05T13:03:19.175Z,14.44
2022-11-05T13:07:30.535Z,14.54
2022-11-05T13:11:39.601Z,14.63
2022-11-05T13:15:51.145Z,14.68
2022-11-05T13:19:59.985Z,14.70
2022-11-05T13:24:11.423Z,14.68
2022-11-05T13:28:23.274Z,14.65
2022-11-05T13:32:32.619Z,14.57
2022-11-05T13:37:02.624Z,14.48
2022-11-05T13:41:19.794Z,14.38
2022-11-05T13:45:46.481Z,14.30
2022-11-05T13:50:26.132Z,14.21
2022-11-05T13:55:05.919Z,14.13
2022-11-05T13:59:39.026Z,14.06
2022-11-05T14:03:50.601Z,14.00
2022-11-05T14:07:54.900Z,13.93
2022-11-05T14:12:00.787Z,13.89
2022-11-05T14:16:07.180Z,13.82
2022-11-05T14:20:39.297Z,13.76
2022-11-05T14:24:44.409Z,13.70
2022-11-05T14:29:26.661Z,13.66
2022-11-05T14:33:39.250Z,13.61
2022-11-05T14:37:54.062Z,13.57
2022-11-05T14:42:02.494Z,13.55
2022-11-05T14:46:08.514Z,13.55
2022-11-05T14:50:20.002Z,13.58
2022-11-05T14:54:28.024Z,13.64
2022-11-05T14:58:35.993Z,13.63
2022-11-05T15:02:40.405Z,13.58
2022-11-05T15:07:14.366Z,13.51
2022-11-05T15:11:24.823Z,13.45
2022-11-05T15:15:31.812Z,13.37
2022-11-05T15:19:37.830Z,13.31
2022-11-05T15:23:44.944Z,13.24
2022-11-05T15:28:00.666Z,13.18
2022-11-05T15:32:04.355Z,13.11
2022-11-05T15:36:12.339Z,13.06
2022-11-05T15:40:24.851Z,13.01
2022-11-05T15:44:31.988Z,12.97
2022-11-05T15:48:37.613Z,12.91
2022-11-05T15:52:48.852Z,12.85
2022-11-05T15:56:55.307Z,12.79
2022-11-05T16:01:00.473Z,12.73
2022-11-05T16:05:11.645Z,12.69
2022-11-05T16:09:27.064Z,12.65
2022-11-05T16:13:35.556Z,12.60
2022-11-05T16:17:51.661Z,12.58
2022-11-05T16:21:56.097Z,12.56
2022-11-05T16:25:59.674Z,12.55
2022-11-05T16:30:02.802Z,12.53
2022-11-05T16:34:07.750Z,12.53
2022-11-05T16:38:14.893Z,12.51
2022-11-05T16:42:39.196Z,12.50
2022-11-05T16:46:44.921Z,12.46
2022-11-05T16:55:07.383Z,12.39
2022-11-05T16:59:13.816Z,12.37
2022-11-05T17:03:17.466Z,12.33
2022-11-05T17:07:20.991Z,12.31
2022-11-05T17:11:26.435Z,12.31
2022-11-05T17:15:34.647Z,12.29
2022-11-05T17:19:42.792Z,12.29
2022-11-05T17:23:45.819Z,12.26
2022-11-05T17:27:51.570Z,12.27
2022-11-05T17:31:54.638Z,12.26
2022-11-05T17:35:58.245Z,12.25
2022-11-05T17:40:01.877Z,12.27
2022-11-05T17:44:08.911Z,12.27
2022-11-05T17:48:12.650Z,12.25
2022-11-05T17:52:16.065Z,12.25
2022-11-05T17:56:32.502Z,12.27
2022-11-05T18:00:38.446Z,12.24
2022-11-05T18:04:42.274Z,12.26
2022-11-05T18:08:46.390Z,12.26
2022-11-05T18:12:49.701Z,12.25
2022-11-05T18:16:56.054Z,12.25
2022-11-05T18:20:59.051Z,12.22
2022-11-05T18:25:02.619Z,12.21
2022-11-05T18:29:07.016Z,12.18
2022-11-05T18:33:11.778Z,12.16
2022-11-05T18:37:15.454Z,12.14
2022-11-05T18:41:19.433Z,12.11
2022-11-05T18:45:29.410Z,12.09
2022-11-05T18:49:34.331Z,12.08
2022-11-05T18:53:37.850Z,12.05
2022-11-05T18:57:40.976Z,12.06
2022-11-05T19:01:45.373Z,12.05
2022-11-05T19:05:50.154Z,12.04
2022-11-05T19:09:54.031Z,12.03
2022-11-05T19:13:57.185Z,12.02
2022-11-05T19:18:00.274Z,12.02
2022-11-05T19:22:05.087Z,11.99
2022-11-05T19:26:09.534Z,11.98
2022-11-05T19:30:13.010Z,11.97
2022-11-05T19:34:16.857Z,11.94
2022-11-05T19:38:21.604Z,11.94
2022-11-05T19:42:25.358Z,11.92
2022-11-05T19:46:29.479Z,11.89
2022-11-05T19:50:33.103Z,11.87
2022-11-05T19:54:38.902Z,11.86
2022-11-05T19:58:42.847Z,11.81
2022-11-05T20:02:47.695Z,11.78
2022-11-05T20:06:51.690Z,11.76
2022-11-05T20:10:57.060Z,11.73
2022-11-05T20:15:00.830Z,11.69
2022-11-05T20:19:06.361Z,11.65
2022-11-05T20:23:09.715Z,11.58
2022-11-05T20:27:17.144Z,11.51
2022-11-05T20:31:21.265Z,11.41
2022-11-05T20:35:25.893Z,11.34
2022-11-05T20:39:31.166Z,11.24
2022-11-05T20:43:36.304Z,11.17
2022-11-05T20:47:40.103Z,11.12
2022-11-05T20:51:44.167Z,11.09
2022-11-05T20:55:49.411Z,11.06
2022-11-05T20:59:54.817Z,11.05
2022-11-05T21:04:02.530Z,11.01
2022-11-05T21:08:08.315Z,10.97
2022-11-05T21:12:11.636Z,10.93
2022-11-05T21:16:19.137Z,10.90
2022-11-05T21:20:23.540Z,10.85
2022-11-05T21:24:26.544Z,10.82
2022-11-05T21:28:30.311Z,10.82
2022-11-05T21:32:34.825Z,10.79
2022-11-05T21:36:38.419Z,10.71
2022-11-05T21:40:42.247Z,10.68
2022-11-05T21:44:45.730Z,10.61
2022-11-05T21:48:50.157Z,10.52
2022-11-05T21:53:11.051Z,10.44
2022-11-05T21:57:33.651Z,10.32
2022-11-05T22:01:37.765Z,10.20
2022-11-05T22:05:42.374Z,10.10
2022-11-05T22:09:46.267Z,10.02
2022-11-05T22:13:49.998Z,9.98
2022-11-05T22:17:53.005Z,9.95
2022-11-05T22:21:58.840Z,9.93
2022-11-05T22:26:03.409Z,9.92
2022-11-05T22:30:07.748Z,9.90
2022-11-05T22:34:11.842Z,9.87
2022-11-05T22:38:16.739Z,9.84
2022-11-05T22:42:19.839Z,9.79
2022-11-05T22:46:25.452Z,9.75
2022-11-05T22:50:28.564Z,9.68
2022-11-05T22:54:38.843Z,9.64
2022-11-05T22:58:43.205Z,9.55
2022-11-05T23:02:46.935Z,9.49
2022-11-05T23:07:07.711Z,9.45
2022-11-05T23:11:34.645Z,9.42
2022-11-05T23:15:54.945Z,9.39
2022-11-05T23:20:16.108Z,9.37
2022-11-05T23:24:19.464Z,9.36
2022-11-05T23:28:24.400Z,9.36
2022-11-05T23:32:28.625Z,9.31
2022-11-05T23:36:49.390Z,9.28
2022-11-05T23:41:09.847Z,9.29
2022-11-05T23:45:32.478Z,9.36
2022-11-05T23:49:35.824Z,9.47
2022-11-05T23:53:41.701Z,9.57
2022-11-05T23:57:44.722Z,9.67
